Terminal Aerodrome Forecast
Issued by NWS

Home | Current Version | Previous Version | Text Only | Print | Product List | Glossary On
Versions: 1 2 3 4 5 6 7 8 9 10 11 12 13 14 15 16 17 18 19 20 21
700
FTAK31 PAJN 020536
TAFAYA
TAF
PAYA 020536Z 0206/0306 11008KT P6SM SCT008 SCT025 OVC045
      TEMPO 0207/0211 15010KT 4SM -RA BR SCT008 BKN025 OVC040
     FM021100 VRB03KT 4SM -RA BKN025 OVC045
     FM021400 VRB04KT 2SM -RA BR BKN008 OVC015
     FM021800 24012KT 6SM -SHRA BKN035 OVC050
      AMD LTD TO CLD VIS AND WIND TIL 020900=

USA.gov is the U.S. government's official web portal to all federal, state and local government web resources and services.